sensor_id;sensor_type;location;lat;lon;timestamp;pressure;altitude;pressure_sealevel;temperature;humidity
34241;BME280;20503;50.200;19.508;2023-05-22T00:02:22;101634.21;;;14.93;59.32
34241;BME280;20503;50.200;19.508;2023-05-22T00:07:30;101634.02;;;14.88;59.29
34241;BME280;20503;50.200;19.508;2023-05-22T00:12:38;101634.23;;;14.74;59.78
34241;BME280;20503;50.200;19.508;2023-05-22T00:17:46;101621.52;;;14.73;59.49
34241;BME280;20503;50.200;19.508;2023-05-22T00:22:54;101622.59;;;14.72;59.33
34241;BME280;20503;50.200;19.508;2023-05-22T00:28:02;101618.38;;;14.63;59.52
34241;BME280;20503;50.200;19.508;2023-05-22T00:33:10;101619.63;;;14.54;59.77
34241;BME280;20503;50.200;19.508;2023-05-22T00:38:28;101614.77;;;14.49;60.06
34241;BME280;20503;50.200;19.508;2023-05-22T00:43:33;101603.98;;;14.41;60.48
34241;BME280;20503;50.200;19.508;2023-05-22T00:48:34;101598.47;;;14.28;60.88
34241;BME280;20503;50.200;19.508;2023-05-22T00:53:42;101601.46;;;14.27;60.79
34241;BME280;20503;50.200;19.508;2023-05-22T00:58:50;101602.27;;;14.21;60.90
34241;BME280;20503;50.200;19.508;2023-05-22T01:03:59;101593.35;;;14.12;61.51
34241;BME280;20503;50.200;19.508;2023-05-22T01:09:06;101598.45;;;14.09;61.73
34241;BME280;20503;50.200;19.508;2023-05-22T01:19:48;101583.83;;;14.02;62.33
34241;BME280;20503;50.200;19.508;2023-05-22T01:35:15;101580.22;;;14.14;61.46
34241;BME280;20503;50.200;19.508;2023-05-22T01:40:19;101582.38;;;14.19;61.43
34241;BME280;20503;50.200;19.508;2023-05-22T01:45:21;101570.06;;;14.15;61.30
34241;BME280;20503;50.200;19.508;2023-05-22T01:50:23;101562.87;;;14.07;61.55
34241;BME280;20503;50.200;19.508;2023-05-22T02:00:42;101560.54;;;14.04;61.89
34241;BME280;20503;50.200;19.508;2023-05-22T02:05:52;101555.04;;;14.11;61.26
34241;BME280;20503;50.200;19.508;2023-05-22T02:10:55;101556.30;;;14.08;61.43
34241;BME280;20503;50.200;19.508;2023-05-22T02:15:57;101556.09;;;14.03;61.37
34241;BME280;20503;50.200;19.508;2023-05-22T02:21:00;101559.89;;;13.89;62.23
34241;BME280;20503;50.200;19.508;2023-05-22T02:26:07;101564.96;;;13.79;62.49
34241;BME280;20503;50.200;19.508;2023-05-22T02:31:15;101546.96;;;13.64;62.61
34241;BME280;20503;50.200;19.508;2023-05-22T02:36:23;101565.60;;;13.68;62.96
34241;BME280;20503;50.200;19.508;2023-05-22T02:41:31;101561.95;;;13.55;63.52
34241;BME280;20503;50.200;19.508;2023-05-22T02:46:39;101554.76;;;13.54;63.64
34241;BME280;20503;50.200;19.508;2023-05-22T02:51:47;101552.41;;;13.44;63.92
34241;BME280;20503;50.200;19.508;2023-05-22T02:56:56;101554.55;;;13.49;63.70
34241;BME280;20503;50.200;19.508;2023-05-22T03:02:04;101556.42;;;13.42;64.06
34241;BME280;20503;50.200;19.508;2023-05-22T03:07:12;101553.89;;;13.40;64.16
34241;BME280;20503;50.200;19.508;2023-05-22T03:12:20;101558.52;;;13.33;64.84
34241;BME280;20503;50.200;19.508;2023-05-22T03:17:28;101555.76;;;13.33;64.57
34241;BME280;20503;50.200;19.508;2023-05-22T03:22:36;101556.41;;;13.29;64.84
34241;BME280;20503;50.200;19.508;2023-05-22T03:27:44;101564.01;;;13.33;64.52
34241;BME280;20503;50.200;19.508;2023-05-22T03:32:52;101555.54;;;13.28;65.34
34241;BME280;20503;50.200;19.508;2023-05-22T03:38:00;101563.58;;;13.23;65.69
34241;BME280;20503;50.200;19.508;2023-05-22T03:43:09;101562.09;;;13.27;64.73
34241;BME280;20503;50.200;19.508;2023-05-22T03:48:17;101557.07;;;13.37;64.57
34241;BME280;20503;50.200;19.508;2023-05-22T03:53:25;101557.91;;;13.44;64.34
34241;BME280;20503;50.200;19.508;2023-05-22T03:58:33;101559.82;;;13.50;64.28
34241;BME280;20503;50.200;19.508;2023-05-22T04:03:41;101557.72;;;13.59;64.21
34241;BME280;20503;50.200;19.508;2023-05-22T04:08:49;101566.64;;;13.74;63.48
34241;BME280;20503;50.200;19.508;2023-05-22T04:14:02;101565.59;;;13.81;63.32
34241;BME280;20503;50.200;19.508;2023-05-22T04:19:05;101553.75;;;13.81;64.82
34241;BME280;20503;50.200;19.508;2023-05-22T04:24:13;101548.06;;;14.21;62.86
34241;BME280;20503;50.200;19.508;2023-05-22T04:29:21;101555.45;;;15.10;60.33
34241;BME280;20503;50.200;19.508;2023-05-22T04:34:29;101560.27;;;15.65;57.47
34241;BME280;20503;50.200;19.508;2023-05-22T04:39:37;101553.78;;;15.84;57.23
34241;BME280;20503;50.200;19.508;2023-05-22T04:44:45;101554.62;;;16.09;56.90
34241;BME280;20503;50.200;19.508;2023-05-22T04:49:53;101560.98;;;16.40;55.82
34241;BME280;20503;50.200;19.508;2023-05-22T04:55:01;101560.88;;;16.89;54.80
34241;BME280;20503;50.200;19.508;2023-05-22T05:00:09;101555.40;;;17.18;54.59
34241;BME280;20503;50.200;19.508;2023-05-22T05:05:16;101558.41;;;17.64;53.14
34241;BME280;20503;50.200;19.508;2023-05-22T05:10:24;101552.36;;;18.08;52.06
34241;BME280;20503;50.200;19.508;2023-05-22T05:15:31;101560.66;;;17.97;52.13
34241;BME280;20503;50.200;19.508;2023-05-22T05:20:39;101562.04;;;17.76;52.30
34241;BME280;20503;50.200;19.508;2023-05-22T05:25:47;101564.77;;;19.09;50.61
34241;BME280;20503;50.200;19.508;2023-05-22T05:30:54;101570.91;;;19.34;48.12
34241;BME280;20503;50.200;19.508;2023-05-22T05:36:03;101582.73;;;19.69;47.16
34241;BME280;20503;50.200;19.508;2023-05-22T05:41:09;101573.10;;;21.46;44.43
34241;BME280;20503;50.200;19.508;2023-05-22T05:46:17;101573.16;;;22.25;43.55
34241;BME280;20503;50.200;19.508;2023-05-22T05:51:25;101571.90;;;21.37;44.84
34241;BME280;20503;50.200;19.508;2023-05-22T05:56:31;101575.85;;;21.62;43.08
34241;BME280;20503;50.200;19.508;2023-05-22T06:01:45;101577.32;;;21.27;43.47
34241;BME280;20503;50.200;19.508;2023-05-22T06:06:48;101562.19;;;22.45;39.84
34241;BME280;20503;50.200;19.508;2023-05-22T06:11:54;101575.63;;;22.53;40.15
34241;BME280;20503;50.200;19.508;2023-05-22T06:17:02;101571.24;;;23.03;39.64
34241;BME280;20503;50.200;19.508;2023-05-22T06:22:10;101579.08;;;23.63;38.54
34241;BME280;20503;50.200;19.508;2023-05-22T06:27:21;101580.20;;;23.10;37.87
34241;BME280;20503;50.200;19.508;2023-05-22T06:32:26;101579.60;;;22.99;37.87
34241;BME280;20503;50.200;19.508;2023-05-22T06:37:34;101576.40;;;22.80;39.42
34241;BME280;20503;50.200;19.508;2023-05-22T06:42:43;101568.04;;;21.86;40.74
34241;BME280;20503;50.200;19.508;2023-05-22T06:47:53;101575.54;;;23.21;38.49
34241;BME280;20503;50.200;19.508;2023-05-22T06:52:58;101572.23;;;21.19;40.86
34241;BME280;20503;50.200;19.508;2023-05-22T06:58:06;101566.89;;;21.39;40.98
34241;BME280;20503;50.200;19.508;2023-05-22T07:03:16;101579.51;;;22.47;39.26
34241;BME280;20503;50.200;19.508;2023-05-22T07:08:22;101568.34;;;22.47;38.15
34241;BME280;20503;50.200;19.508;2023-05-22T07:13:30;101567.17;;;21.85;39.67
34241;BME280;20503;50.200;19.508;2023-05-22T07:18:38;101574.38;;;22.71;37.95
34241;BME280;20503;50.200;19.508;2023-05-22T07:23:47;101577.89;;;22.25;38.66
34241;BME280;20503;50.200;19.508;2023-05-22T07:28:54;101566.17;;;23.52;37.44
34241;BME280;20503;50.200;19.508;2023-05-22T07:34:04;101566.94;;;24.64;35.22
34241;BME280;20503;50.200;19.508;2023-05-22T07:39:10;101575.11;;;23.49;33.45
34241;BME280;20503;50.200;19.508;2023-05-22T07:44:19;101573.63;;;22.85;35.42
34241;BME280;20503;50.200;19.508;2023-05-22T07:49:26;101580.08;;;22.49;36.57
34241;BME280;20503;50.200;19.508;2023-05-22T07:54:34;101580.88;;;23.94;34.88
34241;BME280;20503;50.200;19.508;2023-05-22T07:59:42;101579.42;;;22.74;35.81
34241;BME280;20503;50.200;19.508;2023-05-22T08:04:50;101598.78;;;23.93;34.50
34241;BME280;20503;50.200;19.508;2023-05-22T08:10:03;101594.85;;;21.92;36.80
34241;BME280;20503;50.200;19.508;2023-05-22T08:15:07;101588.67;;;23.15;35.38
34241;BME280;20503;50.200;19.508;2023-05-22T08:20:15;101581.32;;;23.61;36.32
34241;BME280;20503;50.200;19.508;2023-05-22T08:25:23;101583.73;;;24.79;34.99
34241;BME280;20503;50.200;19.508;2023-05-22T08:30:31;101583.92;;;23.21;36.94
34241;BME280;20503;50.200;19.508;2023-05-22T08:35:39;101573.28;;;22.40;36.48
34241;BME280;20503;50.200;19.508;2023-05-22T08:40:47;101568.28;;;21.84;36.25
34241;BME280;20503;50.200;19.508;2023-05-22T08:45:59;101573.10;;;21.24;38.21
34241;BME280;20503;50.200;19.508;2023-05-22T08:51:04;101573.68;;;21.48;38.98
34241;BME280;20503;50.200;19.508;2023-05-22T08:56:11;101576.48;;;21.96;36.83
34241;BME280;20503;50.200;19.508;2023-05-22T09:01:19;101584.67;;;23.58;36.95
34241;BME280;20503;50.200;19.508;2023-05-22T09:06:25;101557.13;;;24.81;35.45
34241;BME280;20503;50.200;19.508;2023-05-22T09:11:33;101563.16;;;23.78;37.84
34241;BME280;20503;50.200;19.508;2023-05-22T09:16:50;101551.19;;;23.83;37.95
34241;BME280;20503;50.200;19.508;2023-05-22T09:22:04;101550.18;;;23.32;40.04
34241;BME280;20503;50.200;19.508;2023-05-22T09:27:06;101566.45;;;22.94;39.03
34241;BME280;20503;50.200;19.508;2023-05-22T09:32:12;101532.77;;;22.33;41.23
34241;BME280;20503;50.200;19.508;2023-05-22T09:37:16;101533.34;;;21.77;43.30
34241;BME280;20503;50.200;19.508;2023-05-22T09:42:23;101543.68;;;21.55;42.60
34241;BME280;20503;50.200;19.508;2023-05-22T09:47:28;101546.38;;;21.98;41.27
34241;BME280;20503;50.200;19.508;2023-05-22T09:52:37;101532.02;;;21.84;42.51
34241;BME280;20503;50.200;19.508;2023-05-22T09:57:44;101527.89;;;21.87;42.14
34241;BME280;20503;50.200;19.508;2023-05-22T10:03:01;101533.41;;;21.12;43.08
34241;BME280;20503;50.200;19.508;2023-05-22T10:13:20;101518.90;;;20.89;43.06
34241;BME280;20503;50.200;19.508;2023-05-22T10:18:26;101512.63;;;21.20;42.00
34241;BME280;20503;50.200;19.508;2023-05-22T10:23:28;101508.59;;;21.59;44.31
34241;BME280;20503;50.200;19.508;2023-05-22T10:28:44;101502.32;;;21.47;46.87
34241;BME280;20503;50.200;19.508;2023-05-22T10:33:45;101520.34;;;21.87;44.26
34241;BME280;20503;50.200;19.508;2023-05-22T10:39:01;101513.93;;;22.18;44.71
34241;BME280;20503;50.200;19.508;2023-05-22T10:44:05;101514.69;;;21.77;42.08
34241;BME280;20503;50.200;19.508;2023-05-22T10:59:39;101514.67;;;20.87;43.77
34241;BME280;20503;50.200;19.508;2023-05-22T11:04:41;101498.79;;;20.49;45.43
34241;BME280;20503;50.200;19.508;2023-05-22T11:09:43;101492.65;;;21.06;43.08
34241;BME280;20503;50.200;19.508;2023-05-22T11:14:58;101502.52;;;20.93;41.68
34241;BME280;20503;50.200;19.508;2023-05-22T11:25:18;101473.96;;;20.64;43.76
34241;BME280;20503;50.200;19.508;2023-05-22T11:30:24;101465.31;;;21.51;44.55
34241;BME280;20503;50.200;19.508;2023-05-22T11:35:27;101468.84;;;20.94;43.62
34241;BME280;20503;50.200;19.508;2023-05-22T11:40:29;101467.14;;;21.62;42.71
34241;BME280;20503;50.200;19.508;2023-05-22T11:45:35;101469.88;;;20.88;45.31
34241;BME280;20503;50.200;19.508;2023-05-22T11:50:37;101459.25;;;20.47;44.81
34241;BME280;20503;50.200;19.508;2023-05-22T11:55:41;101462.21;;;20.41;46.36
34241;BME280;20503;50.200;19.508;2023-05-22T12:00:43;101474.59;;;20.88;46.44
34241;BME280;20503;50.200;19.508;2023-05-22T12:05:51;101491.45;;;20.60;44.83
34241;BME280;20503;50.200;19.508;2023-05-22T12:10:58;101475.73;;;20.70;46.08
34241;BME280;20503;50.200;19.508;2023-05-22T12:21:23;101459.27;;;20.85;45.33
34241;BME280;20503;50.200;19.508;2023-05-22T12:26:24;101463.10;;;21.53;44.49
34241;BME280;20503;50.200;19.508;2023-05-22T12:31:35;101476.35;;;21.41;44.44
34241;BME280;20503;50.200;19.508;2023-05-22T12:36:40;101444.91;;;21.72;47.07
34241;BME280;20503;50.200;19.508;2023-05-22T12:41:45;101463.38;;;20.83;42.93
34241;BME280;20503;50.200;19.508;2023-05-22T12:46:52;101441.76;;;21.37;42.60
34241;BME280;20503;50.200;19.508;2023-05-22T12:52:00;101437.43;;;20.99;43.62
34241;BME280;20503;50.200;19.508;2023-05-22T12:57:08;101446.49;;;21.10;44.04
34241;BME280;20503;50.200;19.508;2023-05-22T13:02:15;101441.84;;;20.95;44.62
34241;BME280;20503;50.200;19.508;2023-05-22T13:07:23;101430.95;;;20.93;41.65
34241;BME280;20503;50.200;19.508;2023-05-22T13:12:30;101426.43;;;21.35;41.95
34241;BME280;20503;50.200;19.508;2023-05-22T13:17:38;101425.77;;;21.54;42.99
34241;BME280;20503;50.200;19.508;2023-05-22T13:22:46;101423.40;;;21.99;41.71
34241;BME280;20503;50.200;19.508;2023-05-22T13:27:53;101417.16;;;21.87;44.08
34241;BME280;20503;50.200;19.508;2023-05-22T13:33:00;101415.56;;;21.38;44.62
34241;BME280;20503;50.200;19.508;2023-05-22T13:38:08;101414.55;;;21.18;44.83
34241;BME280;20503;50.200;19.508;2023-05-22T13:43:15;101402.87;;;21.21;44.96
34241;BME280;20503;50.200;19.508;2023-05-22T13:48:24;101409.16;;;20.85;45.54
34241;BME280;20503;50.200;19.508;2023-05-22T13:53:31;101409.76;;;20.71;45.65
34241;BME280;20503;50.200;19.508;2023-05-22T13:58:38;101402.74;;;20.85;45.10
34241;BME280;20503;50.200;19.508;2023-05-22T14:03:46;101402.43;;;21.60;43.73
34241;BME280;20503;50.200;19.508;2023-05-22T14:08:53;101394.25;;;21.80;44.07
34241;BME280;20503;50.200;19.508;2023-05-22T14:14:01;101392.81;;;22.56;43.23
34241;BME280;20503;50.200;19.508;2023-05-22T14:19:08;101391.27;;;22.95;44.21
34241;BME280;20503;50.200;19.508;2023-05-22T14:24:16;101390.47;;;21.96;44.81
34241;BME280;20503;50.200;19.508;2023-05-22T14:29:24;101382.91;;;21.92;44.01
34241;BME280;20503;50.200;19.508;2023-05-22T14:34:31;101359.45;;;22.34;43.44
34241;BME280;20503;50.200;19.508;2023-05-22T14:39:38;101352.95;;;21.46;46.29
34241;BME280;20503;50.200;19.508;2023-05-22T14:44:47;101353.70;;;21.36;45.17
34241;BME280;20503;50.200;19.508;2023-05-22T14:49:55;101367.95;;;22.08;44.47
34241;BME280;20503;50.200;19.508;2023-05-22T14:55:02;101365.16;;;21.40;45.28
34241;BME280;20503;50.200;19.508;2023-05-22T15:00:15;101361.22;;;21.62;44.59
34241;BME280;20503;50.200;19.508;2023-05-22T15:05:17;101358.81;;;21.44;43.61
34241;BME280;20503;50.200;19.508;2023-05-22T15:10:25;101361.09;;;21.52;44.00
34241;BME280;20503;50.200;19.508;2023-05-22T15:15:32;101340.05;;;21.08;45.22
34241;BME280;20503;50.200;19.508;2023-05-22T15:20:39;101345.88;;;21.33;46.99
34241;BME280;20503;50.200;19.508;2023-05-22T15:25:47;101329.06;;;21.23;48.04
34241;BME280;20503;50.200;19.508;2023-05-22T15:30:55;101338.46;;;20.86;47.50
34241;BME280;20503;50.200;19.508;2023-05-22T15:36:03;101343.31;;;20.53;48.01
34241;BME280;20503;50.200;19.508;2023-05-22T15:41:10;101328.48;;;20.47;48.54
34241;BME280;20503;50.200;19.508;2023-05-22T15:46:18;101335.14;;;20.68;47.30
34241;BME280;20503;50.200;19.508;2023-05-22T15:51:25;101342.48;;;20.31;47.63
34241;BME280;20503;50.200;19.508;2023-05-22T15:56:33;101322.29;;;20.40;48.42
34241;BME280;20503;50.200;19.508;2023-05-22T16:01:41;101323.05;;;20.14;48.56
34241;BME280;20503;50.200;19.508;2023-05-22T16:06:49;101320.66;;;20.23;49.67
34241;BME280;20503;50.200;19.508;2023-05-22T16:11:56;101314.72;;;20.36;50.07
34241;BME280;20503;50.200;19.508;2023-05-22T16:17:04;101309.28;;;20.46;51.52
34241;BME280;20503;50.200;19.508;2023-05-22T16:22:11;101309.63;;;20.28;52.12
34241;BME280;20503;50.200;19.508;2023-05-22T16:27:20;101302.67;;;20.09;52.40
34241;BME280;20503;50.200;19.508;2023-05-22T16:32:28;101307.94;;;20.05;53.38
34241;BME280;20503;50.200;19.508;2023-05-22T16:37:35;101316.80;;;20.02;53.48
34241;BME280;20503;50.200;19.508;2023-05-22T16:42:42;101304.20;;;20.00;52.78
34241;BME280;20503;50.200;19.508;2023-05-22T16:47:50;101312.91;;;19.87;52.76
34241;BME280;20503;50.200;19.508;2023-05-22T16:56:31;101317.37;;;19.88;53.42
34241;BME280;20503;50.200;19.508;2023-05-22T17:01:39;101310.87;;;19.61;54.09
34241;BME280;20503;50.200;19.508;2023-05-22T17:06:47;101322.58;;;19.30;53.91
34241;BME280;20503;50.200;19.508;2023-05-22T17:11:54;101319.45;;;19.43;54.18
34241;BME280;20503;50.200;19.508;2023-05-22T17:17:01;101313.72;;;19.49;54.79
34241;BME280;20503;50.200;19.508;2023-05-22T17:22:09;101314.66;;;19.38;54.37
34241;BME280;20503;50.200;19.508;2023-05-22T17:27:17;101321.88;;;19.23;54.24
34241;BME280;20503;50.200;19.508;2023-05-22T17:32:25;101319.27;;;19.16;54.69
34241;BME280;20503;50.200;19.508;2023-05-22T17:37:32;101310.20;;;18.93;55.82
34241;BME280;20503;50.200;19.508;2023-05-22T17:42:40;101312.98;;;18.93;56.12
34241;BME280;20503;50.200;19.508;2023-05-22T17:47:48;101315.66;;;18.72;56.63
34241;BME280;20503;50.200;19.508;2023-05-22T17:52:56;101306.59;;;18.48;57.63
34241;BME280;20503;50.200;19.508;2023-05-22T17:58:04;101299.88;;;18.33;58.40
34241;BME280;20503;50.200;19.508;2023-05-22T18:03:11;101303.30;;;18.12;59.45
34241;BME280;20503;50.200;19.508;2023-05-22T18:08:19;101305.03;;;17.90;60.43
34241;BME280;20503;50.200;19.508;2023-05-22T18:13:27;101304.55;;;17.70;61.26
34241;BME280;20503;50.200;19.508;2023-05-22T18:18:34;101292.07;;;17.56;61.65
34241;BME280;20503;50.200;19.508;2023-05-22T18:23:42;101297.84;;;17.43;62.52
34241;BME280;20503;50.200;19.508;2023-05-22T18:28:50;101295.76;;;17.27;63.21
34241;BME280;20503;50.200;19.508;2023-05-22T18:33:58;101291.52;;;17.13;64.08
34241;BME280;20503;50.200;19.508;2023-05-22T18:39:07;101289.23;;;16.99;64.91
34241;BME280;20503;50.200;19.508;2023-05-22T18:44:14;101280.05;;;16.87;65.82
34241;BME280;20503;50.200;19.508;2023-05-22T18:49:21;101286.54;;;16.81;66.53
34241;BME280;20503;50.200;19.508;2023-05-22T18:54:29;101283.14;;;16.79;66.76
34241;BME280;20503;50.200;19.508;2023-05-22T18:59:37;101279.27;;;16.68;67.37
34241;BME280;20503;50.200;19.508;2023-05-22T19:04:45;101282.38;;;16.60;67.77
34241;BME280;20503;50.200;19.508;2023-05-22T19:09:53;101276.60;;;16.62;67.80
34241;BME280;20503;50.200;19.508;2023-05-22T19:15:00;101274.05;;;16.49;67.95
34241;BME280;20503;50.200;19.508;2023-05-22T19:20:09;101278.12;;;16.46;68.06
34241;BME280;20503;50.200;19.508;2023-05-22T19:25:16;101278.02;;;16.53;66.74
34241;BME280;20503;50.200;19.508;2023-05-22T19:30:24;101275.73;;;16.50;67.04
34241;BME280;20503;50.200;19.508;2023-05-22T19:35:33;101264.17;;;16.41;67.20
34241;BME280;20503;50.200;19.508;2023-05-22T19:40:40;101264.26;;;16.35;67.63
34241;BME280;20503;50.200;19.508;2023-05-22T19:45:47;101265.48;;;16.21;68.07
34241;BME280;20503;50.200;19.508;2023-05-22T19:50:55;101277.61;;;16.20;67.05
34241;BME280;20503;50.200;19.508;2023-05-22T19:56:03;101270.95;;;16.09;67.75
34241;BME280;20503;50.200;19.508;2023-05-22T20:01:10;101264.66;;;16.02;66.87
34241;BME280;20503;50.200;19.508;2023-05-22T20:06:18;101275.23;;;16.05;66.17
34241;BME280;20503;50.200;19.508;2023-05-22T20:11:27;101270.35;;;16.07;65.11
34241;BME280;20503;50.200;19.508;2023-05-22T20:16:34;101266.59;;;16.02;64.27
34241;BME280;20503;50.200;19.508;2023-05-22T20:21:42;101267.20;;;16.04;63.84
34241;BME280;20503;50.200;19.508;2023-05-22T20:26:51;101258.44;;;16.07;62.86
34241;BME280;20503;50.200;19.508;2023-05-22T20:31:58;101254.51;;;16.14;61.90
34241;BME280;20503;50.200;19.508;2023-05-22T20:37:06;101249.20;;;16.13;61.62
34241;BME280;20503;50.200;19.508;2023-05-22T20:42:15;101247.39;;;16.07;61.51
34241;BME280;20503;50.200;19.508;2023-05-22T20:47:22;101253.99;;;16.06;60.91
34241;BME280;20503;50.200;19.508;2023-05-22T20:52:30;101262.76;;;16.03;60.53
34241;BME280;20503;50.200;19.508;2023-05-22T20:57:38;101254.30;;;15.98;60.50
34241;BME280;20503;50.200;19.508;2023-05-22T21:02:46;101257.70;;;16.00;60.15
34241;BME280;20503;50.200;19.508;2023-05-22T21:07:54;101256.98;;;16.04;59.89
34241;BME280;20503;50.200;19.508;2023-05-22T21:13:02;101253.70;;;15.96;60.15
34241;BME280;20503;50.200;19.508;2023-05-22T21:18:10;101248.16;;;15.96;59.95
34241;BME280;20503;50.200;19.508;2023-05-22T21:23:17;101248.55;;;15.99;59.77
34241;BME280;20503;50.200;19.508;2023-05-22T21:28:25;101245.19;;;15.97;59.78
34241;BME280;20503;50.200;19.508;2023-05-22T21:33:33;101245.19;;;15.97;59.63
34241;BME280;20503;50.200;19.508;2023-05-22T21:38:41;101238.49;;;16.05;59.64
34241;BME280;20503;50.200;19.508;2023-05-22T21:43:49;101255.54;;;16.02;59.68
34241;BME280;20503;50.200;19.508;2023-05-22T21:48:57;101247.87;;;16.04;59.64
34241;BME280;20503;50.200;19.508;2023-05-22T21:54:05;101237.04;;;16.02;59.84
34241;BME280;20503;50.200;19.508;2023-05-22T21:59:13;101235.13;;;16.03;59.99
34241;BME280;20503;50.200;19.508;2023-05-22T22:04:21;101239.05;;;15.95;60.33
34241;BME280;20503;50.200;19.508;2023-05-22T22:09:29;101233.61;;;15.89;60.49
34241;BME280;20503;50.200;19.508;2023-05-22T22:14:37;101227.23;;;15.88;60.60
34241;BME280;20503;50.200;19.508;2023-05-22T22:19:45;101227.95;;;15.84;60.91
34241;BME280;20503;50.200;19.508;2023-05-22T22:24:52;101228.25;;;15.76;61.54
34241;BME280;20503;50.200;19.508;2023-05-22T22:30:00;101224.27;;;15.72;61.73
34241;BME280;20503;50.200;19.508;2023-05-22T22:35:08;101226.63;;;15.68;62.21
34241;BME280;20503;50.200;19.508;2023-05-22T22:40:16;101227.43;;;15.57;62.84
34241;BME280;20503;50.200;19.508;2023-05-22T22:45:24;101227.25;;;15.52;63.31
34241;BME280;20503;50.200;19.508;2023-05-22T22:50:32;101230.69;;;15.48;63.47
34241;BME280;20503;50.200;19.508;2023-05-22T22:55:39;101207.40;;;15.44;63.79
34241;BME280;20503;50.200;19.508;2023-05-22T23:00:47;101209.86;;;15.34;64.18
34241;BME280;20503;50.200;19.508;2023-05-22T23:05:55;101212.98;;;15.37;64.00
34241;BME280;20503;50.200;19.508;2023-05-22T23:11:03;101207.93;;;15.34;63.79
34241;BME280;20503;50.200;19.508;2023-05-22T23:16:11;101199.51;;;15.29;63.79
34241;BME280;20503;50.200;19.508;2023-05-22T23:21:19;101204.38;;;15.27;64.00
34241;BME280;20503;50.200;19.508;2023-05-22T23:26:27;101198.26;;;15.25;63.95
34241;BME280;20503;50.200;19.508;2023-05-22T23:31:35;101195.93;;;15.22;63.97
34241;BME280;20503;50.200;19.508;2023-05-22T23:36:42;101167.98;;;15.19;63.87
34241;BME280;20503;50.200;19.508;2023-05-22T23:41:50;101176.47;;;15.17;63.96
34241;BME280;20503;50.200;19.508;2023-05-22T23:46:58;101166.44;;;15.05;64.61
34241;BME280;20503;50.200;19.508;2023-05-22T23:52:06;101149.73;;;15.00;64.36
34241;BME280;20503;50.200;19.508;2023-05-22T23:57:14;101164.27;;;15.07;64.52
